sensor_id;sensor_type;location;lat;lon;timestamp;P1;durP1;ratioP1;P2;durP2;ratioP2
26502;SDS011;14177;51.520;6.764;2023-02-28T00:01:17;8.82;;;5.13;;
26502;SDS011;14177;51.520;6.764;2023-02-28T00:03:44;8.45;;;4.90;;
26502;SDS011;14177;51.520;6.764;2023-02-28T00:06:11;8.77;;;5.05;;
26502;SDS011;14177;51.520;6.764;2023-02-28T00:08:38;8.18;;;5.07;;
26502;SDS011;14177;51.520;6.764;2023-02-28T00:11:07;9.00;;;5.15;;
26502;SDS011;14177;51.520;6.764;2023-02-28T00:13:38;7.78;;;5.10;;
26502;SDS011;14177;51.520;6.764;2023-02-28T00:16:10;8.35;;;4.82;;
26502;SDS011;14177;51.520;6.764;2023-02-28T00:18:40;7.32;;;4.57;;
26502;SDS011;14177;51.520;6.764;2023-02-28T00:21:08;8.77;;;4.63;;
26502;SDS011;14177;51.520;6.764;2023-02-28T00:23:35;9.20;;;5.20;;
26502;SDS011;14177;51.520;6.764;2023-02-28T00:26:03;7.65;;;5.10;;
26502;SDS011;14177;51.520;6.764;2023-02-28T00:28:30;7.63;;;4.72;;
26502;SDS011;14177;51.520;6.764;2023-02-28T00:30:58;8.18;;;4.78;;
26502;SDS011;14177;51.520;6.764;2023-02-28T00:33:28;9.40;;;4.25;;
26502;SDS011;14177;51.520;6.764;2023-02-28T00:36:02;6.97;;;4.57;;
26502;SDS011;14177;51.520;6.764;2023-02-28T00:38:35;5.63;;;4.45;;
26502;SDS011;14177;51.520;6.764;2023-02-28T00:41:04;8.35;;;4.70;;
26502;SDS011;14177;51.520;6.764;2023-02-28T00:43:33;9.27;;;5.10;;
26502;SDS011;14177;51.520;6.764;2023-02-28T00:46:03;6.80;;;4.53;;
26502;SDS011;14177;51.520;6.764;2023-02-28T00:48:31;8.77;;;4.95;;
26502;SDS011;14177;51.520;6.764;2023-02-28T00:50:58;7.57;;;4.90;;
26502;SDS011;14177;51.520;6.764;2023-02-28T00:53:26;8.27;;;4.43;;
26502;SDS011;14177;51.520;6.764;2023-02-28T00:55:56;7.70;;;5.07;;
26502;SDS011;14177;51.520;6.764;2023-02-28T00:58:24;6.40;;;4.40;;
26502;SDS011;14177;51.520;6.764;2023-02-28T01:00:51;8.68;;;5.18;;
26502;SDS011;14177;51.520;6.764;2023-02-28T01:03:20;5.88;;;4.20;;
26502;SDS011;14177;51.520;6.764;2023-02-28T01:05:48;8.68;;;4.95;;
26502;SDS011;14177;51.520;6.764;2023-02-28T01:08:16;9.82;;;4.93;;
26502;SDS011;14177;51.520;6.764;2023-02-28T01:10:43;7.78;;;4.45;;
26502;SDS011;14177;51.520;6.764;2023-02-28T01:13:10;8.55;;;4.82;;
26502;SDS011;14177;51.520;6.764;2023-02-28T01:15:42;9.38;;;5.75;;
26502;SDS011;14177;51.520;6.764;2023-02-28T01:18:15;15.98;;;5.30;;
26502;SDS011;14177;51.520;6.764;2023-02-28T01:20:42;7.13;;;4.57;;
26502;SDS011;14177;51.520;6.764;2023-02-28T01:23:09;13.70;;;5.70;;
26502;SDS011;14177;51.520;6.764;2023-02-28T01:25:39;9.68;;;5.40;;
26502;SDS011;14177;51.520;6.764;2023-02-28T01:28:06;7.32;;;4.35;;
26502;SDS011;14177;51.520;6.764;2023-02-28T01:30:33;7.57;;;4.65;;
26502;SDS011;14177;51.520;6.764;2023-02-28T01:33:00;6.72;;;4.57;;
26502;SDS011;14177;51.520;6.764;2023-02-28T01:35:31;11.02;;;4.45;;
26502;SDS011;14177;51.520;6.764;2023-02-28T01:38:00;5.90;;;4.32;;
26502;SDS011;14177;51.520;6.764;2023-02-28T01:40:46;9.57;;;4.68;;
26502;SDS011;14177;51.520;6.764;2023-02-28T01:43:20;6.20;;;4.47;;
26502;SDS011;14177;51.520;6.764;2023-02-28T01:45:54;6.47;;;4.72;;
26502;SDS011;14177;51.520;6.764;2023-02-28T01:48:34;8.63;;;4.32;;
26502;SDS011;14177;51.520;6.764;2023-02-28T01:51:13;7.03;;;4.50;;
26502;SDS011;14177;51.520;6.764;2023-02-28T01:53:54;7.20;;;4.15;;
26502;SDS011;14177;51.520;6.764;2023-02-28T01:56:29;6.03;;;4.10;;
26502;SDS011;14177;51.520;6.764;2023-02-28T01:59:01;5.70;;;4.10;;
26502;SDS011;14177;51.520;6.764;2023-02-28T02:01:29;6.13;;;3.88;;
26502;SDS011;14177;51.520;6.764;2023-02-28T02:04:01;6.97;;;4.40;;
26502;SDS011;14177;51.520;6.764;2023-02-28T02:06:43;7.82;;;4.47;;
26502;SDS011;14177;51.520;6.764;2023-02-28T02:09:13;6.53;;;4.25;;
26502;SDS011;14177;51.520;6.764;2023-02-28T02:11:41;7.32;;;4.28;;
26502;SDS011;14177;51.520;6.764;2023-02-28T02:14:13;5.95;;;4.05;;
26502;SDS011;14177;51.520;6.764;2023-02-28T02:17:13;9.50;;;3.95;;
26502;SDS011;14177;51.520;6.764;2023-02-28T02:20:02;7.25;;;4.60;;
26502;SDS011;14177;51.520;6.764;2023-02-28T02:26:35;8.05;;;4.53;;
26502;SDS011;14177;51.520;6.764;2023-02-28T02:37:45;8.05;;;4.57;;
26502;SDS011;14177;51.520;6.764;2023-02-28T02:40:24;6.05;;;4.10;;
26502;SDS011;14177;51.520;6.764;2023-02-28T02:43:13;5.18;;;4.30;;
26502;SDS011;14177;51.520;6.764;2023-02-28T02:46:33;7.93;;;4.53;;
26502;SDS011;14177;51.520;6.764;2023-02-28T02:49:09;9.23;;;4.43;;
26502;SDS011;14177;51.520;6.764;2023-02-28T02:51:47;5.00;;;3.88;;
26502;SDS011;14177;51.520;6.764;2023-02-28T02:54:19;7.28;;;4.68;;
26502;SDS011;14177;51.520;6.764;2023-02-28T02:56:55;6.85;;;3.80;;
26502;SDS011;14177;51.520;6.764;2023-02-28T02:59:28;7.03;;;3.92;;
26502;SDS011;14177;51.520;6.764;2023-02-28T03:01:59;6.65;;;4.25;;
26502;SDS011;14177;51.520;6.764;2023-02-28T03:04:31;5.75;;;4.20;;
26502;SDS011;14177;51.520;6.764;2023-02-28T03:07:06;5.55;;;3.75;;
26502;SDS011;14177;51.520;6.764;2023-02-28T03:09:34;6.82;;;4.72;;
26502;SDS011;14177;51.520;6.764;2023-02-28T03:12:06;5.15;;;3.97;;
26502;SDS011;14177;51.520;6.764;2023-02-28T03:17:49;6.13;;;3.90;;
26502;SDS011;14177;51.520;6.764;2023-02-28T03:26:43;6.47;;;4.68;;
26502;SDS011;14177;51.520;6.764;2023-02-28T03:29:55;7.63;;;4.70;;
26502;SDS011;14177;51.520;6.764;2023-02-28T03:32:21;10.35;;;5.03;;
26502;SDS011;14177;51.520;6.764;2023-02-28T03:35:01;8.35;;;5.15;;
26502;SDS011;14177;51.520;6.764;2023-02-28T03:37:38;8.85;;;4.97;;
26502;SDS011;14177;51.520;6.764;2023-02-28T03:40:10;7.65;;;5.10;;
26502;SDS011;14177;51.520;6.764;2023-02-28T03:42:44;7.80;;;5.07;;
26502;SDS011;14177;51.520;6.764;2023-02-28T03:45:18;7.45;;;4.82;;
26502;SDS011;14177;51.520;6.764;2023-02-28T03:47:53;8.05;;;5.00;;
26502;SDS011;14177;51.520;6.764;2023-02-28T03:50:29;7.90;;;5.03;;
26502;SDS011;14177;51.520;6.764;2023-02-28T03:53:14;6.47;;;4.53;;
26502;SDS011;14177;51.520;6.764;2023-02-28T03:56:04;6.85;;;4.10;;
26502;SDS011;14177;51.520;6.764;2023-02-28T04:01:54;10.30;;;4.53;;
26502;SDS011;14177;51.520;6.764;2023-02-28T04:04:24;8.27;;;5.13;;
26502;SDS011;14177;51.520;6.764;2023-02-28T04:06:52;11.98;;;5.82;;
26502;SDS011;14177;51.520;6.764;2023-02-28T04:09:28;12.25;;;6.10;;
26502;SDS011;14177;51.520;6.764;2023-02-28T04:11:55;13.82;;;5.85;;
26502;SDS011;14177;51.520;6.764;2023-02-28T04:14:22;8.73;;;5.57;;
26502;SDS011;14177;51.520;6.764;2023-02-28T04:16:50;11.40;;;5.35;;
26502;SDS011;14177;51.520;6.764;2023-02-28T04:19:17;16.60;;;6.20;;
26502;SDS011;14177;51.520;6.764;2023-02-28T04:21:52;12.05;;;4.88;;
26502;SDS011;14177;51.520;6.764;2023-02-28T04:24:24;9.23;;;5.32;;
26502;SDS011;14177;51.520;6.764;2023-02-28T04:26:54;8.10;;;4.95;;
26502;SDS011;14177;51.520;6.764;2023-02-28T04:29:26;12.15;;;4.90;;
26502;SDS011;14177;51.520;6.764;2023-02-28T04:31:58;9.25;;;4.90;;
26502;SDS011;14177;51.520;6.764;2023-02-28T04:34:28;11.05;;;6.72;;
26502;SDS011;14177;51.520;6.764;2023-02-28T04:36:57;9.73;;;4.68;;
26502;SDS011;14177;51.520;6.764;2023-02-28T04:39:38;9.57;;;5.10;;
26502;SDS011;14177;51.520;6.764;2023-02-28T04:42:07;6.55;;;4.28;;
26502;SDS011;14177;51.520;6.764;2023-02-28T04:44:35;10.15;;;4.82;;
26502;SDS011;14177;51.520;6.764;2023-02-28T04:47:02;7.40;;;4.38;;
26502;SDS011;14177;51.520;6.764;2023-02-28T04:49:29;10.50;;;4.50;;
26502;SDS011;14177;51.520;6.764;2023-02-28T04:51:56;7.55;;;4.28;;
26502;SDS011;14177;51.520;6.764;2023-02-28T04:54:22;8.82;;;4.60;;
26502;SDS011;14177;51.520;6.764;2023-02-28T04:56:50;9.07;;;4.63;;
26502;SDS011;14177;51.520;6.764;2023-02-28T04:59:17;8.85;;;4.40;;
26502;SDS011;14177;51.520;6.764;2023-02-28T05:01:47;8.48;;;4.10;;
26502;SDS011;14177;51.520;6.764;2023-02-28T05:04:16;7.85;;;4.25;;
26502;SDS011;14177;51.520;6.764;2023-02-28T05:06:43;9.02;;;4.63;;
26502;SDS011;14177;51.520;6.764;2023-02-28T05:09:11;6.18;;;3.90;;
26502;SDS011;14177;51.520;6.764;2023-02-28T05:11:38;8.55;;;4.75;;
26502;SDS011;14177;51.520;6.764;2023-02-28T05:14:09;7.45;;;3.92;;
26502;SDS011;14177;51.520;6.764;2023-02-28T05:16:39;6.03;;;4.13;;
26502;SDS011;14177;51.520;6.764;2023-02-28T05:19:06;5.70;;;4.10;;
26502;SDS011;14177;51.520;6.764;2023-02-28T05:21:34;6.95;;;3.67;;
26502;SDS011;14177;51.520;6.764;2023-02-28T05:24:15;6.60;;;3.70;;
26502;SDS011;14177;51.520;6.764;2023-02-28T05:26:49;5.85;;;4.00;;
26502;SDS011;14177;51.520;6.764;2023-02-28T05:29:18;8.40;;;4.72;;
26502;SDS011;14177;51.520;6.764;2023-02-28T05:31:45;7.15;;;4.15;;
26502;SDS011;14177;51.520;6.764;2023-02-28T05:34:12;5.95;;;3.97;;
26502;SDS011;14177;51.520;6.764;2023-02-28T05:36:41;4.30;;;3.25;;
26502;SDS011;14177;51.520;6.764;2023-02-28T05:39:09;7.05;;;3.20;;
26502;SDS011;14177;51.520;6.764;2023-02-28T05:41:39;7.45;;;3.55;;
26502;SDS011;14177;51.520;6.764;2023-02-28T05:44:08;5.50;;;3.17;;
26502;SDS011;14177;51.520;6.764;2023-02-28T05:46:35;4.80;;;3.53;;
26502;SDS011;14177;51.520;6.764;2023-02-28T05:49:02;4.53;;;3.35;;
26502;SDS011;14177;51.520;6.764;2023-02-28T05:51:30;9.27;;;3.50;;
26502;SDS011;14177;51.520;6.764;2023-02-28T05:54:00;5.47;;;3.55;;
26502;SDS011;14177;51.520;6.764;2023-02-28T05:56:28;4.47;;;3.55;;
26502;SDS011;14177;51.520;6.764;2023-02-28T05:58:55;6.00;;;3.53;;
26502;SDS011;14177;51.520;6.764;2023-02-28T06:04:02;6.38;;;3.72;;
26502;SDS011;14177;51.520;6.764;2023-02-28T06:06:32;10.43;;;4.03;;
26502;SDS011;14177;51.520;6.764;2023-02-28T06:09:03;7.72;;;3.42;;
26502;SDS011;14177;51.520;6.764;2023-02-28T06:11:32;6.93;;;3.78;;
26502;SDS011;14177;51.520;6.764;2023-02-28T06:13:59;7.00;;;3.47;;
26502;SDS011;14177;51.520;6.764;2023-02-28T06:16:28;7.35;;;3.20;;
26502;SDS011;14177;51.520;6.764;2023-02-28T06:18:58;6.57;;;3.75;;
26502;SDS011;14177;51.520;6.764;2023-02-28T06:21:28;6.35;;;3.60;;
26502;SDS011;14177;51.520;6.764;2023-02-28T06:23:56;6.68;;;3.33;;
26502;SDS011;14177;51.520;6.764;2023-02-28T06:26:24;5.47;;;3.88;;
26502;SDS011;14177;51.520;6.764;2023-02-28T06:28:52;6.03;;;3.72;;
26502;SDS011;14177;51.520;6.764;2023-02-28T06:31:20;7.90;;;3.45;;
26502;SDS011;14177;51.520;6.764;2023-02-28T06:33:48;4.97;;;3.60;;
26502;SDS011;14177;51.520;6.764;2023-02-28T06:36:16;8.75;;;4.85;;
26502;SDS011;14177;51.520;6.764;2023-02-28T06:38:44;6.43;;;3.95;;
26502;SDS011;14177;51.520;6.764;2023-02-28T06:41:11;8.32;;;4.45;;
26502;SDS011;14177;51.520;6.764;2023-02-28T06:43:39;6.93;;;4.38;;
26502;SDS011;14177;51.520;6.764;2023-02-28T06:46:08;7.55;;;4.50;;
26502;SDS011;14177;51.520;6.764;2023-02-28T06:48:40;7.88;;;4.63;;
26502;SDS011;14177;51.520;6.764;2023-02-28T06:51:14;6.35;;;4.05;;
26502;SDS011;14177;51.520;6.764;2023-02-28T06:53:44;6.05;;;3.90;;
26502;SDS011;14177;51.520;6.764;2023-02-28T06:56:12;7.40;;;4.07;;
26502;SDS011;14177;51.520;6.764;2023-02-28T06:58:41;5.55;;;3.92;;
26502;SDS011;14177;51.520;6.764;2023-02-28T07:01:08;4.82;;;3.80;;
26502;SDS011;14177;51.520;6.764;2023-02-28T07:03:35;5.82;;;3.92;;
26502;SDS011;14177;51.520;6.764;2023-02-28T07:06:04;7.38;;;4.38;;
26502;SDS011;14177;51.520;6.764;2023-02-28T07:08:32;8.27;;;4.32;;
26502;SDS011;14177;51.520;6.764;2023-02-28T07:11:02;7.93;;;4.40;;
26502;SDS011;14177;51.520;6.764;2023-02-28T07:13:30;5.20;;;3.63;;
26502;SDS011;14177;51.520;6.764;2023-02-28T07:15:59;7.80;;;4.47;;
26502;SDS011;14177;51.520;6.764;2023-02-28T07:18:31;6.00;;;3.95;;
26502;SDS011;14177;51.520;6.764;2023-02-28T07:21:01;8.15;;;4.25;;
26502;SDS011;14177;51.520;6.764;2023-02-28T07:23:32;5.18;;;4.10;;
26502;SDS011;14177;51.520;6.764;2023-02-28T07:25:59;8.65;;;4.05;;
26502;SDS011;14177;51.520;6.764;2023-02-28T07:28:27;6.53;;;4.03;;
26502;SDS011;14177;51.520;6.764;2023-02-28T07:30:54;5.57;;;3.70;;
26502;SDS011;14177;51.520;6.764;2023-02-28T07:33:21;6.65;;;3.60;;
26502;SDS011;14177;51.520;6.764;2023-02-28T07:35:51;5.82;;;3.58;;
26502;SDS011;14177;51.520;6.764;2023-02-28T07:38:18;6.88;;;3.88;;
26502;SDS011;14177;51.520;6.764;2023-02-28T07:40:45;4.57;;;3.22;;
26502;SDS011;14177;51.520;6.764;2023-02-28T07:43:12;7.35;;;3.72;;
26502;SDS011;14177;51.520;6.764;2023-02-28T07:45:39;5.78;;;3.92;;
26502;SDS011;14177;51.520;6.764;2023-02-28T07:48:06;5.72;;;3.67;;
26502;SDS011;14177;51.520;6.764;2023-02-28T07:50:36;5.45;;;3.67;;
26502;SDS011;14177;51.520;6.764;2023-02-28T07:53:04;6.80;;;3.55;;
26502;SDS011;14177;51.520;6.764;2023-02-28T07:55:31;5.93;;;3.60;;
26502;SDS011;14177;51.520;6.764;2023-02-28T07:57:58;6.78;;;4.40;;
26502;SDS011;14177;51.520;6.764;2023-02-28T08:00:26;5.82;;;3.53;;
26502;SDS011;14177;51.520;6.764;2023-02-28T08:02:53;6.53;;;3.95;;
26502;SDS011;14177;51.520;6.764;2023-02-28T08:05:20;8.20;;;4.00;;
26502;SDS011;14177;51.520;6.764;2023-02-28T08:07:48;4.60;;;3.40;;
26502;SDS011;14177;51.520;6.764;2023-02-28T08:10:16;4.28;;;3.30;;
26502;SDS011;14177;51.520;6.764;2023-02-28T08:12:43;6.75;;;3.60;;
26502;SDS011;14177;51.520;6.764;2023-02-28T08:15:10;6.95;;;3.85;;
26502;SDS011;14177;51.520;6.764;2023-02-28T08:17:37;6.47;;;4.03;;
26502;SDS011;14177;51.520;6.764;2023-02-28T08:20:04;8.70;;;4.07;;
26502;SDS011;14177;51.520;6.764;2023-02-28T08:22:32;9.65;;;4.43;;
26502;SDS011;14177;51.520;6.764;2023-02-28T08:24:59;6.05;;;4.10;;
26502;SDS011;14177;51.520;6.764;2023-02-28T08:27:26;7.65;;;3.25;;
26502;SDS011;14177;51.520;6.764;2023-02-28T08:29:52;11.95;;;4.72;;
26502;SDS011;14177;51.520;6.764;2023-02-28T08:32:19;5.90;;;4.05;;
26502;SDS011;14177;51.520;6.764;2023-02-28T08:34:55;4.43;;;3.13;;
26502;SDS011;14177;51.520;6.764;2023-02-28T08:37:22;5.35;;;3.95;;
26502;SDS011;14177;51.520;6.764;2023-02-28T08:39:50;6.15;;;3.60;;
26502;SDS011;14177;51.520;6.764;2023-02-28T08:42:21;5.10;;;3.13;;
26502;SDS011;14177;51.520;6.764;2023-02-28T08:44:49;8.27;;;3.03;;
26502;SDS011;14177;51.520;6.764;2023-02-28T08:47:16;6.32;;;3.47;;
26502;SDS011;14177;51.520;6.764;2023-02-28T08:49:43;3.67;;;2.92;;
26502;SDS011;14177;51.520;6.764;2023-02-28T08:52:09;6.18;;;3.30;;
26502;SDS011;14177;51.520;6.764;2023-02-28T08:54:37;5.18;;;2.97;;
26502;SDS011;14177;51.520;6.764;2023-02-28T08:57:04;5.43;;;3.13;;
26502;SDS011;14177;51.520;6.764;2023-02-28T08:59:30;5.18;;;2.60;;
26502;SDS011;14177;51.520;6.764;2023-02-28T09:01:58;3.78;;;3.00;;
26502;SDS011;14177;51.520;6.764;2023-02-28T09:04:25;7.05;;;2.90;;
26502;SDS011;14177;51.520;6.764;2023-02-28T09:06:52;5.20;;;2.53;;
26502;SDS011;14177;51.520;6.764;2023-02-28T09:09:19;4.25;;;2.70;;
26502;SDS011;14177;51.520;6.764;2023-02-28T09:11:46;4.55;;;3.20;;
26502;SDS011;14177;51.520;6.764;2023-02-28T09:14:13;4.38;;;2.53;;
26502;SDS011;14177;51.520;6.764;2023-02-28T09:16:40;7.80;;;2.58;;
26502;SDS011;14177;51.520;6.764;2023-02-28T09:19:10;4.50;;;2.30;;
26502;SDS011;14177;51.520;6.764;2023-02-28T09:21:38;2.60;;;2.10;;
26502;SDS011;14177;51.520;6.764;2023-02-28T09:24:06;4.00;;;2.70;;
26502;SDS011;14177;51.520;6.764;2023-02-28T09:26:33;3.35;;;2.13;;
26502;SDS011;14177;51.520;6.764;2023-02-28T09:29:12;4.57;;;2.10;;
26502;SDS011;14177;51.520;6.764;2023-02-28T09:31:40;3.13;;;2.03;;
26502;SDS011;14177;51.520;6.764;2023-02-28T09:34:07;2.97;;;1.60;;
26502;SDS011;14177;51.520;6.764;2023-02-28T09:36:35;2.50;;;1.80;;
26502;SDS011;14177;51.520;6.764;2023-02-28T09:39:11;2.33;;;1.65;;
26502;SDS011;14177;51.520;6.764;2023-02-28T09:41:42;2.00;;;1.48;;
26502;SDS011;14177;51.520;6.764;2023-02-28T09:47:00;2.13;;;1.33;;
26502;SDS011;14177;51.520;6.764;2023-02-28T09:49:41;3.47;;;1.85;;
26502;SDS011;14177;51.520;6.764;2023-02-28T09:52:15;2.13;;;1.40;;
26502;SDS011;14177;51.520;6.764;2023-02-28T09:54:47;3.50;;;1.70;;
26502;SDS011;14177;51.520;6.764;2023-02-28T09:57:31;2.70;;;1.50;;
26502;SDS011;14177;51.520;6.764;2023-02-28T10:00:07;2.08;;;1.60;;
26502;SDS011;14177;51.520;6.764;2023-02-28T10:05:43;2.35;;;1.73;;
26502;SDS011;14177;51.520;6.764;2023-02-28T10:08:35;4.35;;;1.60;;
26502;SDS011;14177;51.520;6.764;2023-02-28T10:11:18;2.58;;;1.60;;
26502;SDS011;14177;51.520;6.764;2023-02-28T10:13:50;3.25;;;1.75;;
26502;SDS011;14177;51.520;6.764;2023-02-28T10:16:27;2.53;;;1.52;;
26502;SDS011;14177;51.520;6.764;2023-02-28T10:19:09;3.35;;;1.70;;
26502;SDS011;14177;51.520;6.764;2023-02-28T10:21:50;2.00;;;1.35;;
26502;SDS011;14177;51.520;6.764;2023-02-28T10:24:32;3.03;;;1.65;;
26502;SDS011;14177;51.520;6.764;2023-02-28T10:29:43;2.35;;;1.70;;
26502;SDS011;14177;51.520;6.764;2023-02-28T10:35:10;5.43;;;1.70;;
26502;SDS011;14177;51.520;6.764;2023-02-28T10:37:56;5.72;;;1.98;;
26502;SDS011;14177;51.520;6.764;2023-02-28T10:40:29;3.03;;;1.92;;
26502;SDS011;14177;51.520;6.764;2023-02-28T10:43:06;3.40;;;1.80;;
26502;SDS011;14177;51.520;6.764;2023-02-28T10:46:32;3.05;;;1.88;;
26502;SDS011;14177;51.520;6.764;2023-02-28T10:51:39;4.07;;;2.53;;
26502;SDS011;14177;51.520;6.764;2023-02-28T10:54:14;5.03;;;1.95;;
26502;SDS011;14177;51.520;6.764;2023-02-28T10:59:42;4.15;;;2.28;;
26502;SDS011;14177;51.520;6.764;2023-02-28T11:05:31;4.65;;;2.25;;
26502;SDS011;14177;51.520;6.764;2023-02-28T11:08:06;2.88;;;2.00;;
26502;SDS011;14177;51.520;6.764;2023-02-28T11:10:53;2.85;;;2.40;;
26502;SDS011;14177;51.520;6.764;2023-02-28T11:13:33;2.75;;;2.20;;
26502;SDS011;14177;51.520;6.764;2023-02-28T11:16:09;5.00;;;2.47;;
26502;SDS011;14177;51.520;6.764;2023-02-28T11:18:49;3.03;;;2.10;;
26502;SDS011;14177;51.520;6.764;2023-02-28T11:21:26;4.35;;;1.95;;
26502;SDS011;14177;51.520;6.764;2023-02-28T11:24:22;2.83;;;1.95;;
26502;SDS011;14177;51.520;6.764;2023-02-28T11:30:00;3.17;;;1.80;;
26502;SDS011;14177;51.520;6.764;2023-02-28T11:32:27;3.97;;;1.85;;
26502;SDS011;14177;51.520;6.764;2023-02-28T11:37:38;3.15;;;1.92;;
26502;SDS011;14177;51.520;6.764;2023-02-28T11:40:14;3.78;;;1.80;;
26502;SDS011;14177;51.520;6.764;2023-02-28T11:48:41;2.55;;;1.45;;
26502;SDS011;14177;51.520;6.764;2023-02-28T11:51:31;1.95;;;1.55;;
26502;SDS011;14177;51.520;6.764;2023-02-28T11:54:21;3.28;;;2.10;;
26502;SDS011;14177;51.520;6.764;2023-02-28T11:57:33;2.80;;;1.90;;
26502;SDS011;14177;51.520;6.764;2023-02-28T12:03:31;2.90;;;2.00;;
26502;SDS011;14177;51.520;6.764;2023-02-28T12:06:40;6.28;;;2.67;;
26502;SDS011;14177;51.520;6.764;2023-02-28T12:26:37;4.28;;;2.20;;
26502;SDS011;14177;51.520;6.764;2023-02-28T12:29:16;6.10;;;1.80;;
26502;SDS011;14177;51.520;6.764;2023-02-28T12:31:59;2.58;;;1.85;;
26502;SDS011;14177;51.520;6.764;2023-02-28T12:34:37;2.80;;;1.70;;
26502;SDS011;14177;51.520;6.764;2023-02-28T12:37:14;4.35;;;1.70;;
26502;SDS011;14177;51.520;6.764;2023-02-28T12:39:50;4.13;;;2.38;;
26502;SDS011;14177;51.520;6.764;2023-02-28T12:42:28;2.50;;;1.67;;
26502;SDS011;14177;51.520;6.764;2023-02-28T12:45:07;2.88;;;2.00;;
26502;SDS011;14177;51.520;6.764;2023-02-28T12:47:40;4.67;;;2.07;;
26502;SDS011;14177;51.520;6.764;2023-02-28T12:50:13;3.40;;;2.17;;
26502;SDS011;14177;51.520;6.764;2023-02-28T12:55:41;2.20;;;1.67;;
26502;SDS011;14177;51.520;6.764;2023-02-28T13:01:06;2.65;;;1.65;;
26502;SDS011;14177;51.520;6.764;2023-02-28T13:10:04;2.45;;;1.92;;
26502;SDS011;14177;51.520;6.764;2023-02-28T13:12:34;4.78;;;1.92;;
26502;SDS011;14177;51.520;6.764;2023-02-28T13:15:15;4.28;;;2.13;;
26502;SDS011;14177;51.520;6.764;2023-02-28T13:17:48;6.72;;;2.10;;
26502;SDS011;14177;51.520;6.764;2023-02-28T13:20:47;4.28;;;2.38;;
26502;SDS011;14177;51.520;6.764;2023-02-28T13:34:32;2.85;;;2.08;;
26502;SDS011;14177;51.520;6.764;2023-02-28T13:47:34;3.60;;;2.30;;
26502;SDS011;14177;51.520;6.764;2023-02-28T13:59:26;2.35;;;1.85;;
26502;SDS011;14177;51.520;6.764;2023-02-28T14:11:37;3.90;;;2.10;;
26502;SDS011;14177;51.520;6.764;2023-02-28T14:14:09;2.75;;;2.00;;
26502;SDS011;14177;51.520;6.764;2023-02-28T14:17:08;3.65;;;2.05;;
26502;SDS011;14177;51.520;6.764;2023-02-28T14:19:44;2.30;;;1.90;;
26502;SDS011;14177;51.520;6.764;2023-02-28T14:25:33;5.65;;;1.83;;
26502;SDS011;14177;51.520;6.764;2023-02-28T14:28:28;3.97;;;2.03;;
26502;SDS011;14177;51.520;6.764;2023-02-28T14:31:44;3.22;;;1.80;;
26502;SDS011;14177;51.520;6.764;2023-02-28T14:34:41;2.67;;;1.90;;
26502;SDS011;14177;51.520;6.764;2023-02-28T14:37:29;4.72;;;2.08;;
26502;SDS011;14177;51.520;6.764;2023-02-28T14:40:11;2.40;;;2.00;;
26502;SDS011;14177;51.520;6.764;2023-02-28T14:42:56;5.25;;;2.08;;
26502;SDS011;14177;51.520;6.764;2023-02-28T14:45:30;4.03;;;2.42;;
26502;SDS011;14177;51.520;6.764;2023-02-28T14:48:01;3.50;;;2.22;;
26502;SDS011;14177;51.520;6.764;2023-02-28T14:50:36;3.58;;;2.08;;
26502;SDS011;14177;51.520;6.764;2023-02-28T14:53:03;2.67;;;1.80;;
26502;SDS011;14177;51.520;6.764;2023-02-28T14:55:45;3.33;;;2.05;;
26502;SDS011;14177;51.520;6.764;2023-02-28T15:01:01;2.35;;;1.80;;
26502;SDS011;14177;51.520;6.764;2023-02-28T15:03:37;3.03;;;1.60;;
26502;SDS011;14177;51.520;6.764;2023-02-28T15:06:13;2.80;;;2.15;;
26502;SDS011;14177;51.520;6.764;2023-02-28T15:08:44;2.50;;;1.75;;
26502;SDS011;14177;51.520;6.764;2023-02-28T15:11:15;4.18;;;1.77;;
26502;SDS011;14177;51.520;6.764;2023-02-28T15:13:46;7.60;;;2.47;;
26502;SDS011;14177;51.520;6.764;2023-02-28T15:16:16;4.80;;;2.42;;
26502;SDS011;14177;51.520;6.764;2023-02-28T15:18:54;4.63;;;2.33;;
26502;SDS011;14177;51.520;6.764;2023-02-28T15:21:31;4.47;;;2.40;;
26502;SDS011;14177;51.520;6.764;2023-02-28T15:24:10;3.92;;;2.25;;
26502;SDS011;14177;51.520;6.764;2023-02-28T15:26:56;3.25;;;2.55;;
26502;SDS011;14177;51.520;6.764;2023-02-28T15:29:27;4.60;;;2.30;;
26502;SDS011;14177;51.520;6.764;2023-02-28T15:32:02;4.63;;;2.78;;
26502;SDS011;14177;51.520;6.764;2023-02-28T15:34:34;5.82;;;2.70;;
26502;SDS011;14177;51.520;6.764;2023-02-28T15:40:10;2.92;;;2.30;;
26502;SDS011;14177;51.520;6.764;2023-02-28T15:42:58;3.25;;;2.25;;
26502;SDS011;14177;51.520;6.764;2023-02-28T15:45:45;4.60;;;2.45;;
26502;SDS011;14177;51.520;6.764;2023-02-28T15:48:20;2.88;;;1.90;;
26502;SDS011;14177;51.520;6.764;2023-02-28T15:50:56;3.13;;;2.30;;
26502;SDS011;14177;51.520;6.764;2023-02-28T15:53:49;3.70;;;2.20;;
26502;SDS011;14177;51.520;6.764;2023-02-28T15:56:26;3.28;;;2.10;;
26502;SDS011;14177;51.520;6.764;2023-02-28T15:58:57;4.30;;;2.35;;
26502;SDS011;14177;51.520;6.764;2023-02-28T16:01:29;5.82;;;2.40;;
26502;SDS011;14177;51.520;6.764;2023-02-28T16:04:01;4.88;;;2.30;;
26502;SDS011;14177;51.520;6.764;2023-02-28T16:06:40;3.92;;;2.45;;
26502;SDS011;14177;51.520;6.764;2023-02-28T16:09:11;3.30;;;2.40;;
26502;SDS011;14177;51.520;6.764;2023-02-28T16:11:42;4.28;;;2.22;;
26502;SDS011;14177;51.520;6.764;2023-02-28T16:14:19;2.72;;;2.22;;
26502;SDS011;14177;51.520;6.764;2023-02-28T16:16:50;4.10;;;2.47;;
26502;SDS011;14177;51.520;6.764;2023-02-28T16:19:21;3.72;;;2.33;;
26502;SDS011;14177;51.520;6.764;2023-02-28T16:21:49;4.45;;;2.45;;
26502;SDS011;14177;51.520;6.764;2023-02-28T16:24:17;3.95;;;2.55;;
26502;SDS011;14177;51.520;6.764;2023-02-28T16:26:47;6.32;;;2.80;;
26502;SDS011;14177;51.520;6.764;2023-02-28T16:29:23;2.78;;;2.20;;
26502;SDS011;14177;51.520;6.764;2023-02-28T16:31:56;4.35;;;3.00;;
26502;SDS011;14177;51.520;6.764;2023-02-28T16:34:24;3.92;;;2.58;;
26502;SDS011;14177;51.520;6.764;2023-02-28T16:36:52;6.70;;;2.78;;
26502;SDS011;14177;51.520;6.764;2023-02-28T16:39:19;4.38;;;2.50;;
26502;SDS011;14177;51.520;6.764;2023-02-28T16:41:46;4.65;;;2.92;;
26502;SDS011;14177;51.520;6.764;2023-02-28T16:44:35;4.63;;;2.90;;
26502;SDS011;14177;51.520;6.764;2023-02-28T16:47:03;5.38;;;2.95;;
26502;SDS011;14177;51.520;6.764;2023-02-28T16:49:30;4.93;;;3.28;;
26502;SDS011;14177;51.520;6.764;2023-02-28T16:51:57;4.18;;;2.70;;
26502;SDS011;14177;51.520;6.764;2023-02-28T16:54:24;6.00;;;2.88;;
26502;SDS011;14177;51.520;6.764;2023-02-28T16:56:51;3.72;;;2.88;;
26502;SDS011;14177;51.520;6.764;2023-02-28T16:59:21;5.30;;;2.90;;
26502;SDS011;14177;51.520;6.764;2023-02-28T17:01:51;6.97;;;3.30;;
26502;SDS011;14177;51.520;6.764;2023-02-28T17:04:18;5.63;;;2.85;;
26502;SDS011;14177;51.520;6.764;2023-02-28T17:06:45;4.35;;;3.05;;
26502;SDS011;14177;51.520;6.764;2023-02-28T17:09:30;4.90;;;3.40;;
26502;SDS011;14177;51.520;6.764;2023-02-28T17:14:35;5.93;;;3.60;;
26502;SDS011;14177;51.520;6.764;2023-02-28T17:17:04;7.53;;;3.80;;
26502;SDS011;14177;51.520;6.764;2023-02-28T17:19:32;7.30;;;3.40;;
26502;SDS011;14177;51.520;6.764;2023-02-28T17:22:02;6.63;;;3.60;;
26502;SDS011;14177;51.520;6.764;2023-02-28T17:24:29;7.28;;;3.80;;
26502;SDS011;14177;51.520;6.764;2023-02-28T17:26:57;6.88;;;3.80;;
26502;SDS011;14177;51.520;6.764;2023-02-28T17:29:24;4.78;;;3.50;;
26502;SDS011;14177;51.520;6.764;2023-02-28T17:31:51;5.53;;;3.63;;
26502;SDS011;14177;51.520;6.764;2023-02-28T17:34:18;6.35;;;3.63;;
26502;SDS011;14177;51.520;6.764;2023-02-28T17:36:46;4.65;;;3.30;;
26502;SDS011;14177;51.520;6.764;2023-02-28T17:39:16;6.50;;;3.50;;
26502;SDS011;14177;51.520;6.764;2023-02-28T17:41:52;5.85;;;3.50;;
26502;SDS011;14177;51.520;6.764;2023-02-28T17:44:20;5.50;;;3.85;;
26502;SDS011;14177;51.520;6.764;2023-02-28T17:46:50;9.68;;;4.18;;